createdAt,value
2022-12-15T00:01:21.739Z,15.20
2022-12-15T00:04:43.294Z,16.40
2022-12-15T00:08:04.599Z,15.87
2022-12-15T00:11:25.993Z,14.83
2022-12-15T00:14:47.685Z,15.20
2022-12-15T00:18:08.939Z,15.68
2022-12-15T00:21:30.057Z,15.98
2022-12-15T00:24:51.317Z,16.23
2022-12-15T00:28:15.470Z,16.40
2022-12-15T00:31:36.796Z,16.95
2022-12-15T00:34:58.322Z,16.02
2022-12-15T00:38:31.174Z,16.23
2022-12-15T00:41:34.233Z,16.57
2022-12-15T00:44:40.148Z,15.70
2022-12-15T00:47:42.930Z,15.50
2022-12-15T00:50:54.642Z,17.75
2022-12-15T00:54:18.193Z,16.73
2022-12-15T00:57:39.562Z,15.57
2022-12-15T01:01:00.868Z,16.57
2022-12-15T01:04:22.963Z,16.83
2022-12-15T01:07:44.604Z,16.55
2022-12-15T01:11:12.559Z,16.42
2022-12-15T01:14:33.845Z,16.13
2022-12-15T01:17:56.117Z,16.10
2022-12-15T01:21:01.573Z,16.75
2022-12-15T01:24:04.535Z,16.00
2022-12-15T01:27:07.316Z,17.23
2022-12-15T01:30:11.916Z,17.13
2022-12-15T01:33:19.246Z,16.83
2022-12-15T01:36:21.955Z,16.55
2022-12-15T01:39:24.895Z,14.52
2022-12-15T01:42:27.868Z,15.57
2022-12-15T01:45:30.561Z,16.63
2022-12-15T01:48:48.864Z,14.90
2022-12-15T01:51:56.715Z,15.98
2022-12-15T01:54:59.468Z,17.52
2022-12-15T01:58:07.031Z,16.23
2022-12-15T02:01:10.454Z,15.57
2022-12-15T02:04:14.027Z,16.07
2022-12-15T02:07:17.533Z,16.58
2022-12-15T02:10:20.820Z,16.37
2022-12-15T02:13:34.523Z,16.73
2022-12-15T02:17:19.284Z,17.17
2022-12-15T02:20:56.246Z,15.17
2022-12-15T02:24:05.227Z,15.43
2022-12-15T02:27:28.933Z,16.77
2022-12-15T02:30:43.619Z,16.02
2022-12-15T02:33:58.189Z,16.93
2022-12-15T02:37:24.594Z,16.70
2022-12-15T02:40:27.515Z,16.27
2022-12-15T02:43:32.899Z,16.55
2022-12-15T02:46:46.225Z,15.85
2022-12-15T02:49:58.711Z,15.73
2022-12-15T02:53:39.998Z,17.37
2022-12-15T02:56:54.974Z,16.48
2022-12-15T03:00:17.318Z,16.55
2022-12-15T03:03:21.176Z,16.83
2022-12-15T03:06:25.558Z,15.77
2022-12-15T03:09:28.981Z,15.27
2022-12-15T03:12:32.109Z,17.00
2022-12-15T03:15:35.736Z,16.98
2022-12-15T03:18:38.739Z,16.58
2022-12-15T03:21:41.779Z,15.77
2022-12-15T03:24:45.764Z,17.27
2022-12-15T03:27:52.083Z,17.17
2022-12-15T03:30:54.947Z,17.60
2022-12-15T03:33:57.778Z,16.55
2022-12-15T03:37:01.296Z,17.27
2022-12-15T03:40:04.309Z,16.10
2022-12-15T03:43:07.058Z,17.35
2022-12-15T03:46:09.902Z,18.48
2022-12-15T03:49:12.651Z,17.65
2022-12-15T03:52:15.478Z,17.67
2022-12-15T03:55:18.849Z,18.60
2022-12-15T03:58:21.776Z,17.83
2022-12-15T04:01:33.172Z,17.83
2022-12-15T04:04:36.030Z,18.05
2022-12-15T04:07:39.665Z,17.50
2022-12-15T04:10:43.858Z,17.57
2022-12-15T04:13:47.700Z,18.85
2022-12-15T04:16:50.609Z,18.87
2022-12-15T04:20:11.965Z,18.85
2022-12-15T04:23:17.961Z,18.70
2022-12-15T04:26:39.328Z,18.80
2022-12-15T04:30:00.595Z,17.83
2022-12-15T04:33:26.391Z,19.25
2022-12-15T04:36:54.051Z,19.15
2022-12-15T04:40:20.159Z,19.73
2022-12-15T04:43:41.565Z,18.67
2022-12-15T04:47:02.894Z,19.50
2022-12-15T04:50:24.605Z,20.08
2022-12-15T04:53:46.310Z,20.37
2022-12-15T04:57:07.760Z,19.10
2022-12-15T05:00:30.037Z,20.47
2022-12-15T05:03:51.389Z,29.20
2022-12-15T05:07:12.969Z,21.92
2022-12-15T05:10:34.098Z,20.37
2022-12-15T05:13:55.391Z,23.40
2022-12-15T05:17:16.846Z,18.60
2022-12-15T05:20:38.401Z,20.62
2022-12-15T05:23:59.649Z,20.67
2022-12-15T05:27:21.303Z,24.33
2022-12-15T05:30:42.886Z,22.63
2022-12-15T05:33:45.860Z,22.10
2022-12-15T05:36:48.699Z,26.23
2022-12-15T05:39:51.487Z,21.05
2022-12-15T05:42:54.341Z,21.25
2022-12-15T05:45:57.329Z,31.20
2022-12-15T05:49:04.263Z,33.33
2022-12-15T05:52:07.064Z,35.35
2022-12-15T05:55:10.162Z,27.42
2022-12-15T05:58:12.998Z,29.00
2022-12-15T06:01:18.281Z,28.10
2022-12-15T06:04:21.207Z,25.47
2022-12-15T06:07:24.480Z,26.23
2022-12-15T06:10:28.047Z,25.17
2022-12-15T06:13:31.948Z,23.45
2022-12-15T06:16:40.972Z,23.60
2022-12-15T06:19:47.190Z,24.20
2022-12-15T06:22:50.304Z,20.70
2022-12-15T06:25:53.241Z,21.70
2022-12-15T06:28:58.461Z,23.00
2022-12-15T06:32:01.293Z,24.83
2022-12-15T06:35:04.196Z,20.77
2022-12-15T06:38:06.953Z,21.62
2022-12-15T06:41:10.859Z,20.20
2022-12-15T06:44:15.460Z,20.67
2022-12-15T06:47:18.235Z,19.20
2022-12-15T06:50:21.661Z,21.10
2022-12-15T06:53:25.245Z,20.75
2022-12-15T06:56:37.044Z,18.48
2022-12-15T06:59:39.998Z,19.15
2022-12-15T07:02:43.594Z,18.77
2022-12-15T07:06:05.948Z,18.43
2022-12-15T07:09:13.996Z,19.40
2022-12-15T07:12:19.815Z,19.75
2022-12-15T07:15:22.621Z,18.98
2022-12-15T07:18:26.586Z,19.63
2022-12-15T07:21:29.545Z,19.07
2022-12-15T07:24:32.305Z,19.55
2022-12-15T07:27:35.512Z,19.00
2022-12-15T07:30:39.083Z,18.37
2022-12-15T07:33:42.090Z,20.23
2022-12-15T07:36:50.135Z,19.40
2022-12-15T07:39:54.845Z,19.27
2022-12-15T07:42:57.739Z,19.12
2022-12-15T07:46:03.888Z,17.90
2022-12-15T07:49:09.598Z,19.27
2022-12-15T07:52:15.201Z,18.00
2022-12-15T07:55:27.717Z,18.95
2022-12-15T07:58:42.939Z,17.25
2022-12-15T08:01:47.467Z,19.58
2022-12-15T08:04:50.444Z,19.33
2022-12-15T08:07:53.356Z,19.50
2022-12-15T08:10:56.579Z,18.35
2022-12-15T08:14:04.031Z,18.45
2022-12-15T08:17:10.347Z,20.58
2022-12-15T08:20:13.992Z,20.93
2022-12-15T08:23:20.104Z,19.30
2022-12-15T08:26:31.135Z,19.02
2022-12-15T08:29:51.792Z,20.33
2022-12-15T08:32:55.866Z,18.87
2022-12-15T08:36:03.581Z,18.83
2022-12-15T08:39:06.379Z,22.97
2022-12-15T08:42:11.784Z,37.05
2022-12-15T08:45:15.763Z,22.00
2022-12-15T08:48:18.547Z,19.83
2022-12-15T08:51:23.254Z,20.27
2022-12-15T08:54:26.423Z,20.63
2022-12-15T08:57:29.721Z,20.55
2022-12-15T09:00:35.353Z,20.70
2022-12-15T09:03:38.570Z,20.90
2022-12-15T09:06:46.792Z,19.80
2022-12-15T09:09:54.143Z,18.20
2022-12-15T09:12:59.757Z,20.20
2022-12-15T09:16:09.806Z,21.20
2022-12-15T09:19:16.721Z,21.35
2022-12-15T09:22:19.998Z,20.03
2022-12-15T09:25:22.891Z,20.93
2022-12-15T09:28:26.476Z,21.62
2022-12-15T09:31:32.989Z,22.95
2022-12-15T09:34:38.186Z,22.40
2022-12-15T09:37:48.430Z,21.17
2022-12-15T09:40:54.976Z,20.57
2022-12-15T09:44:15.282Z,22.15
2022-12-15T09:47:35.535Z,21.25
2022-12-15T09:50:40.627Z,21.10
2022-12-15T09:53:59.713Z,20.00
2022-12-15T09:57:12.694Z,21.43
2022-12-15T10:00:22.024Z,21.40
2022-12-15T10:03:53.297Z,20.23
2022-12-15T10:07:30.106Z,20.37
2022-12-15T10:10:54.572Z,21.83
2022-12-15T10:14:14.577Z,19.90
2022-12-15T10:17:24.537Z,21.70
2022-12-15T10:20:29.684Z,21.27
2022-12-15T10:23:36.202Z,20.25
2022-12-15T10:26:41.033Z,21.80
2022-12-15T10:29:49.070Z,20.20
2022-12-15T10:33:19.690Z,20.65
2022-12-15T10:36:23.536Z,19.95
2022-12-15T10:39:41.332Z,20.65
2022-12-15T10:42:50.166Z,20.53
2022-12-15T10:46:10.834Z,20.97
2022-12-15T10:49:13.807Z,21.25
2022-12-15T10:52:24.278Z,22.60
2022-12-15T10:55:39.213Z,21.67
2022-12-15T10:58:54.507Z,22.00
2022-12-15T11:01:57.560Z,22.13
2022-12-15T11:05:16.469Z,22.40
2022-12-15T11:08:20.136Z,23.05
2022-12-15T11:11:48.106Z,21.33
2022-12-15T11:14:53.253Z,22.90
2022-12-15T11:18:04.932Z,24.47
2022-12-15T11:21:21.832Z,21.42
2022-12-15T11:24:40.247Z,22.73
2022-12-15T11:27:45.429Z,21.87
2022-12-15T11:31:13.452Z,21.23
2022-12-15T11:34:23.442Z,22.17
2022-12-15T11:37:39.623Z,21.12
2022-12-15T11:40:43.740Z,21.80
2022-12-15T11:43:55.073Z,21.48
2022-12-15T11:47:36.704Z,22.03
2022-12-15T11:51:02.024Z,20.27
2022-12-15T11:54:20.083Z,20.42
2022-12-15T11:57:57.897Z,19.77
2022-12-15T12:01:21.190Z,20.75
2022-12-15T12:04:30.185Z,20.57
2022-12-15T12:07:49.848Z,19.37
2022-12-15T12:11:14.241Z,20.83
2022-12-15T12:14:56.800Z,20.65
2022-12-15T12:18:08.111Z,20.62
2022-12-15T12:21:20.180Z,22.17
2022-12-15T12:24:45.747Z,24.57
2022-12-15T12:28:04.005Z,23.52
2022-12-15T12:31:19.047Z,21.55
2022-12-15T12:34:52.912Z,21.45
2022-12-15T12:38:20.455Z,21.03
2022-12-15T12:41:58.044Z,21.63
2022-12-15T12:45:02.191Z,20.55
2022-12-15T12:48:30.440Z,21.70
2022-12-15T12:51:38.724Z,19.60
2022-12-15T12:54:43.515Z,19.93
2022-12-15T12:57:46.985Z,21.97
2022-12-15T13:01:25.887Z,20.20
2022-12-15T13:04:28.836Z,19.67
2022-12-15T13:07:38.900Z,21.48
2022-12-15T13:10:43.955Z,20.70
2022-12-15T13:13:51.305Z,20.47
2022-12-15T13:17:29.227Z,22.10
2022-12-15T13:20:34.758Z,23.17
2022-12-15T13:23:41.744Z,21.90
2022-12-15T13:26:45.411Z,21.93
2022-12-15T13:30:04.321Z,23.50
2022-12-15T13:33:17.637Z,21.77
2022-12-15T13:36:42.511Z,21.15
2022-12-15T13:39:54.934Z,23.15
2022-12-15T13:42:59.195Z,21.33
2022-12-15T13:46:17.761Z,20.77
2022-12-15T13:49:26.772Z,20.98
2022-12-15T13:56:11.780Z,22.30
2022-12-15T13:59:33.825Z,22.30
2022-12-15T14:02:37.650Z,19.73
2022-12-15T14:05:43.196Z,21.15
2022-12-15T14:08:47.904Z,22.05
2022-12-15T14:11:54.521Z,21.05
2022-12-15T14:14:59.667Z,19.93
2022-12-15T14:18:02.821Z,23.00
2022-12-15T14:21:08.075Z,25.48
2022-12-15T14:24:40.897Z,23.52
2022-12-15T14:27:50.973Z,20.55
2022-12-15T14:30:54.215Z,20.67
2022-12-15T14:34:07.516Z,20.00
2022-12-15T14:37:19.089Z,20.42
2022-12-15T14:40:28.499Z,20.02
2022-12-15T14:43:39.254Z,19.95
2022-12-15T14:46:48.364Z,20.67
2022-12-15T14:49:51.723Z,20.53
2022-12-15T14:53:00.518Z,21.55
2022-12-15T14:56:30.748Z,23.23
2022-12-15T14:59:43.518Z,23.77
2022-12-15T15:02:50.181Z,22.53
2022-12-15T15:06:01.064Z,21.27
2022-12-15T15:09:48.330Z,21.92
2022-12-15T15:12:54.335Z,26.70
2022-12-15T15:16:02.231Z,25.20
2022-12-15T15:19:05.849Z,23.47
2022-12-15T15:22:34.363Z,26.63
2022-12-15T15:25:41.681Z,25.62
2022-12-15T15:28:46.266Z,31.83
2022-12-15T15:31:53.274Z,34.88
2022-12-15T15:34:56.246Z,31.03
2022-12-15T15:38:05.876Z,30.03
2022-12-15T15:41:15.065Z,30.77
2022-12-15T15:44:19.682Z,30.20
2022-12-15T15:47:26.001Z,29.92
2022-12-15T15:50:31.056Z,28.27
2022-12-15T15:53:34.957Z,29.67
2022-12-15T15:56:39.589Z,28.92
2022-12-15T15:59:44.759Z,25.48
2022-12-15T16:02:48.328Z,28.17
2022-12-15T16:05:51.391Z,25.73
2022-12-15T16:08:54.769Z,27.10
2022-12-15T16:12:00.349Z,25.83
2022-12-15T16:15:06.291Z,28.62
2022-12-15T16:18:09.767Z,30.75
2022-12-15T16:21:15.247Z,27.60
2022-12-15T16:24:20.875Z,27.83
2022-12-15T16:27:25.820Z,25.73
2022-12-15T16:30:30.449Z,26.98
2022-12-15T16:33:33.723Z,24.45
2022-12-15T16:36:37.313Z,75.33
2022-12-15T16:39:40.303Z,35.77
2022-12-15T16:42:45.689Z,36.47
2022-12-15T16:45:52.598Z,44.15
2022-12-15T16:48:57.120Z,37.97
2022-12-15T16:52:00.715Z,34.43
2022-12-15T16:55:04.761Z,29.50
2022-12-15T16:58:15.319Z,30.48
2022-12-15T17:01:18.983Z,29.67
2022-12-15T17:04:27.427Z,28.17
2022-12-15T17:08:14.953Z,26.43
2022-12-15T17:11:53.510Z,26.07
2022-12-15T17:15:53.373Z,32.92
2022-12-15T17:19:21.964Z,29.85
2022-12-15T17:22:42.854Z,30.65
2022-12-15T17:26:28.040Z,40.30
2022-12-15T17:30:10.653Z,29.80
2022-12-15T17:33:50.161Z,25.85
2022-12-15T17:37:27.048Z,28.25
2022-12-15T17:41:03.101Z,26.20
2022-12-15T17:44:36.724Z,24.33
2022-12-15T17:47:46.463Z,26.10
2022-12-15T17:51:30.209Z,28.12
2022-12-15T17:54:59.701Z,27.73
2022-12-15T17:58:34.046Z,29.17
2022-12-15T18:02:07.362Z,28.03
2022-12-15T18:05:48.404Z,28.53
2022-12-15T18:09:27.330Z,28.67
2022-12-15T18:12:46.375Z,28.85
2022-12-15T18:16:10.842Z,28.95
2022-12-15T18:19:36.479Z,33.30
2022-12-15T18:23:05.198Z,33.47
2022-12-15T18:26:44.307Z,34.17
2022-12-15T18:30:08.420Z,33.95
2022-12-15T18:33:43.082Z,30.55
2022-12-15T18:37:24.176Z,29.97
2022-12-15T18:40:34.822Z,29.83
2022-12-15T18:43:37.815Z,29.15
2022-12-15T18:46:44.734Z,29.58
2022-12-15T18:49:53.714Z,29.98
2022-12-15T18:53:00.896Z,30.53
2022-12-15T18:56:06.816Z,30.43
2022-12-15T18:59:15.986Z,31.50
2022-12-15T19:02:22.234Z,31.75
2022-12-15T19:05:32.858Z,31.73
2022-12-15T19:08:38.314Z,32.70
2022-12-15T19:12:04.059Z,29.20
2022-12-15T19:15:16.502Z,30.08
2022-12-15T19:18:41.013Z,30.77
2022-12-15T19:22:03.320Z,33.45
2022-12-15T19:25:08.649Z,37.23
2022-12-15T19:28:20.545Z,32.90
2022-12-15T19:31:23.849Z,33.03
2022-12-15T19:34:28.189Z,30.27
2022-12-15T19:37:32.328Z,34.72
2022-12-15T19:40:36.706Z,32.67
2022-12-15T19:43:42.388Z,32.63
2022-12-15T19:46:47.104Z,34.72
2022-12-15T19:49:55.112Z,33.60
2022-12-15T19:53:01.798Z,34.10
2022-12-15T19:56:05.664Z,37.73
2022-12-15T19:59:20.095Z,35.20
2022-12-15T20:02:23.402Z,36.30
2022-12-15T20:05:26.704Z,33.42
2022-12-15T20:08:38.226Z,32.65
2022-12-15T20:11:41.262Z,32.53
2022-12-15T20:14:44.716Z,32.60
2022-12-15T20:18:00.966Z,31.45
2022-12-15T20:21:04.228Z,29.77
2022-12-15T20:24:16.548Z,28.73
2022-12-15T20:27:20.099Z,29.53
2022-12-15T20:30:32.869Z,31.07
2022-12-15T20:33:35.971Z,31.02
2022-12-15T20:36:39.296Z,30.58
2022-12-15T20:39:42.192Z,29.10
2022-12-15T20:42:45.592Z,29.57
2022-12-15T20:45:56.356Z,30.87
2022-12-15T20:49:01.765Z,29.77
2022-12-15T20:52:04.835Z,28.77
2022-12-15T20:55:15.223Z,30.35
2022-12-15T20:58:19.949Z,31.23
2022-12-15T21:01:29.167Z,30.17
2022-12-15T21:04:35.121Z,29.50
2022-12-15T21:07:39.757Z,30.60
2022-12-15T21:10:42.675Z,31.20
2022-12-15T21:13:46.247Z,28.43
2022-12-15T21:16:49.900Z,26.80
2022-12-15T21:19:53.248Z,27.08
2022-12-15T21:22:58.126Z,27.30
2022-12-15T21:26:02.058Z,27.95
2022-12-15T21:29:09.968Z,27.80
2022-12-15T21:32:13.149Z,26.43
2022-12-15T21:35:18.240Z,27.15
2022-12-15T21:38:31.926Z,27.80
2022-12-15T21:41:46.229Z,26.80
2022-12-15T21:44:55.362Z,27.70
2022-12-15T21:48:16.627Z,28.60
2022-12-15T21:51:19.881Z,27.45
2022-12-15T21:54:30.661Z,27.70
2022-12-15T21:57:34.273Z,29.40
2022-12-15T22:00:42.288Z,27.83
2022-12-15T22:03:53.631Z,25.03
2022-12-15T22:06:57.555Z,26.67
2022-12-15T22:10:00.456Z,26.98
2022-12-15T22:13:04.747Z,26.95
2022-12-15T22:16:09.048Z,26.33
2022-12-15T22:19:13.896Z,27.97
2022-12-15T22:22:16.946Z,25.83
2022-12-15T22:25:25.754Z,26.60
2022-12-15T22:28:29.569Z,25.85
2022-12-15T22:31:32.805Z,26.20
2022-12-15T22:34:38.987Z,24.60
2022-12-15T22:37:42.861Z,24.58
2022-12-15T22:40:49.287Z,24.60
2022-12-15T22:43:55.247Z,23.27
2022-12-15T22:46:59.778Z,23.20
2022-12-15T22:50:02.875Z,24.80
2022-12-15T22:53:17.174Z,23.40
2022-12-15T22:56:25.749Z,23.60
2022-12-15T22:59:36.524Z,22.42
2022-12-15T23:02:42.630Z,20.87
2022-12-15T23:05:45.595Z,23.10
2022-12-15T23:08:55.769Z,22.08
2022-12-15T23:11:59.461Z,21.50
2022-12-15T23:15:21.813Z,20.40
2022-12-15T23:18:24.869Z,19.97
2022-12-15T23:21:28.136Z,19.20
2022-12-15T23:24:31.597Z,18.62
2022-12-15T23:27:34.513Z,19.60
2022-12-15T23:30:37.467Z,19.17
2022-12-15T23:33:41.407Z,18.97
2022-12-15T23:36:44.404Z,17.93
2022-12-15T23:39:47.476Z,17.35
2022-12-15T23:42:51.121Z,17.42
2022-12-15T23:46:00.933Z,16.95
2022-12-15T23:49:07.397Z,16.17
2022-12-15T23:52:10.365Z,16.77
2022-12-15T23:55:16.288Z,14.85
2022-12-15T23:58:20.542Z,17.10
